Time;durP1;ratioP1;P1;durP2;ratioP2;P2;SDS_P1;SDS_P2;PMS_P1;PMS_P2;Temp;Humidity;BMP_temperature;BMP_pressure;BME280_temperature;BME280_humidity;BME280_pressure;Samples;Min_cycle;Max_cycle;Signal;HPM_P1;HPM_P2
2022/12/30 00:00:49;;;;;;;7.88;1.08;;;20.20;99.90;;;;;;4919804;29;20208;-75
2022/12/30 00:03:16;;;;;;;2.17;0.70;;;20.20;99.90;;;;;;4919448;29;20679;-75
2022/12/30 00:05:43;;;;;;;0.88;0.75;;;20.20;99.90;;;;;;4919770;29;20200;-76
2022/12/30 00:08:45;;;;;;;5.20;1.00;;;20.00;99.90;;;;;;4919678;29;20231;-75
2022/12/30 00:10:58;;;;;;;5.22;1.17;;;20.30;99.90;;;;;;4919223;29;20208;-75
2022/12/30 00:33:28;;;;;;;2.00;0.93;;;20.30;99.90;;;;;;4919573;29;20216;-78
2022/12/30 00:35:59;;;;;;;3.00;0.52;;;19.90;99.90;;;;;;4919671;29;20185;-78
2022/12/30 00:38:29;;;;;;;0.88;0.88;;;19.00;99.90;;;;;;4919645;29;20228;-78
2022/12/30 00:44:30;;;;;;;1.45;0.82;;;20.00;99.90;;;;;;4919694;29;20260;-78
2022/12/30 00:46:57;;;;;;;1.65;0.90;;;19.90;99.90;;;;;;4919340;29;20249;-78
2022/12/30 00:57:37;;;;;;;0.95;0.70;;;19.90;99.90;;;;;;4919530;29;20599;-78
2022/12/30 01:00:06;;;;;;;5.35;0.80;;;19.90;99.90;;;;;;4918442;29;20232;-78
2022/12/30 01:02:33;;;;;;;0.82;0.50;;;19.90;99.90;;;;;;4919115;29;20288;-78
2022/12/30 01:05:00;;;;;;;0.63;0.45;;;19.90;99.90;;;;;;4919013;29;20205;-78
2022/12/30 01:07:28;;;;;;;0.70;0.70;;;19.90;99.90;;;;;;4918964;29;20201;-78
2022/12/30 01:09:55;;;;;;;1.70;0.60;;;19.80;99.90;;;;;;4919099;29;20236;-78
2022/12/30 01:12:22;;;;;;;5.05;1.10;;;19.80;99.90;;;;;;4919004;29;20260;-78
2022/12/30 01:14:50;;;;;;;3.35;0.75;;;20.00;99.90;;;;;;4918773;29;20231;-78
2022/12/30 01:17:21;;;;;;;1.98;0.60;;;19.80;99.90;;;;;;4918803;29;20580;-78
2022/12/30 01:19:47;;;;;;;1.95;0.60;;;19.90;99.90;;;;;;4918753;29;20228;-78
2022/12/30 01:22:15;;;;;;;1.48;0.63;;;19.90;99.90;;;;;;4918760;29;20208;-78
2022/12/30 01:24:41;;;;;;;0.40;0.40;;;19.90;99.90;;;;;;4918676;29;20201;-78
2022/12/30 01:27:08;;;;;;;0.75;0.65;;;19.90;99.90;;;;;;4918779;29;20209;-78
2022/12/30 01:29:37;;;;;;;1.95;0.55;;;19.80;99.90;;;;;;4918206;29;20653;-78
2022/12/30 01:32:05;;;;;;;5.25;0.75;;;19.90;99.90;;;;;;4918604;29;20244;-78
2022/12/30 01:34:33;;;;;;;1.20;0.55;;;19.80;99.90;;;;;;4918406;29;20580;-78
2022/12/30 01:37:00;;;;;;;2.05;0.60;;;19.80;99.90;;;;;;4918481;29;20209;-78
2022/12/30 01:39:27;;;;;;;1.92;0.80;;;19.80;99.90;;;;;;4918472;29;20251;-78
2022/12/30 01:41:55;;;;;;;0.70;0.70;;;19.80;99.90;;;;;;4918845;29;20205;-78
2022/12/30 01:44:48;;;;;;;0.52;0.52;;;19.90;99.90;;;;;;4918826;29;20204;-78
2022/12/30 01:47:18;;;;;;;1.40;0.68;;;19.90;99.90;;;;;;4918812;29;20604;-78
2022/12/30 01:49:49;;;;;;;1.15;0.63;;;19.80;99.90;;;;;;4918628;29;20228;-78
2022/12/30 01:52:20;;;;;;;0.75;0.60;;;19.70;99.90;;;;;;4918587;29;20561;-78
2022/12/30 01:54:48;;;;;;;3.25;0.68;;;19.90;99.90;;;;;;4918786;29;20205;-78
2022/12/30 01:57:16;;;;;;;2.30;0.60;;;19.90;99.90;;;;;;4918414;29;20201;-78
2022/12/30 01:59:44;;;;;;;0.60;0.60;;;19.80;99.90;;;;;;4918245;29;20228;-78
2022/12/30 02:02:11;;;;;;;3.35;0.68;;;19.90;99.90;;;;;;4917833;29;20208;-78
2022/12/30 02:04:38;;;;;;;2.33;0.60;;;19.80;99.90;;;;;;4917922;29;20212;-78
2022/12/30 02:07:09;;;;;;;1.67;0.60;;;19.80;99.90;;;;;;4918131;29;20212;-78
2022/12/30 02:09:37;;;;;;;2.50;0.60;;;19.80;99.90;;;;;;4917714;29;20231;-78
2022/12/30 02:12:06;;;;;;;1.20;0.52;;;19.80;99.90;;;;;;4917571;29;20212;-78
2022/12/30 02:14:37;;;;;;;0.73;0.65;;;19.80;99.90;;;;;;4917827;29;20216;-78
2022/12/30 02:17:09;;;;;;;0.50;0.50;;;19.80;99.90;;;;;;4917865;29;20193;-78
2022/12/30 02:20:03;;;;;;;0.65;0.40;;;19.90;99.90;;;;;;4917450;29;20637;-78
2022/12/30 02:22:48;;;;;;;1.55;0.40;;;19.80;99.90;;;;;;4917799;29;20633;-78
2022/12/30 02:25:59;;;;;;;1.05;0.60;;;19.80;99.90;;;;;;4917564;29;20588;-78
2022/12/30 02:28:54;;;;;;;1.83;0.40;;;19.80;99.90;;;;;;4877750;29;20398;-78
2022/12/30 02:31:32;;;;;;;1.30;0.60;;;19.80;99.90;;;;;;4906154;29;20209;-78
2022/12/30 02:34:09;;;;;;;0.82;0.50;;;19.80;99.90;;;;;;4918141;29;20211;-78
2022/12/30 02:36:45;;;;;;;0.95;0.50;;;19.80;99.90;;;;;;4917194;29;20600;-78
2022/12/30 02:39:19;;;;;;;1.45;0.40;;;19.80;99.90;;;;;;4917452;29;20229;-78
2022/12/30 02:44:42;;;;;;;1.42;0.60;;;19.80;99.90;;;;;;4917473;29;20651;-78
2022/12/30 02:47:15;;;;;;;0.40;0.40;;;19.80;99.90;;;;;;4917578;29;20196;-78
2022/12/30 02:52:13;;;;;;;4.88;0.70;;;19.70;99.90;;;;;;4917364;29;20228;-78
2022/12/30 02:52:32;;;;;;;3.30;0.40;;;19.70;99.90;;;;;;4916812;29;20300;-78
2022/12/30 02:55:00;;;;;;;1.30;0.50;;;19.80;99.90;;;;;;4917538;29;20213;-78
2022/12/30 02:57:29;;;;;;;1.73;0.50;;;19.80;99.90;;;;;;4916989;29;20673;-78
2022/12/30 03:06:31;;;;;;;1.73;0.40;;;19.80;99.90;;;;;;4917318;29;20257;-78
2022/12/30 03:09:06;;;;;;;2.03;0.50;;;19.80;99.90;;;;;;4917126;29;20232;-78
2022/12/30 03:11:39;;;;;;;1.85;0.50;;;19.80;99.90;;;;;;4917262;29;20604;-78
2022/12/30 03:14:16;;;;;;;0.60;0.55;;;19.80;99.90;;;;;;4917070;29;20213;-78
2022/12/30 03:16:48;;;;;;;1.65;0.63;;;19.80;99.90;;;;;;4917149;29;20200;-77
2022/12/30 03:19:18;;;;;;;0.43;0.40;;;19.80;99.90;;;;;;4917268;29;20229;-77
2022/12/30 03:21:48;;;;;;;4.13;0.63;;;19.80;99.90;;;;;;4918427;29;20193;-77
2022/12/30 03:27:05;;;;;;;6.13;0.50;;;19.80;99.90;;;;;;4920660;29;20276;-77
2022/12/30 03:29:36;;;;;;;2.35;0.65;;;19.80;99.90;;;;;;4920469;29;20233;-77
2022/12/30 03:32:05;;;;;;;1.65;0.40;;;19.80;99.90;;;;;;4920368;29;20193;-77
2022/12/30 03:34:33;;;;;;;3.65;0.57;;;19.80;99.90;;;;;;4920333;29;20320;-77
2022/12/30 03:37:07;;;;;;;1.85;0.43;;;19.70;99.90;;;;;;4920112;29;20687;-77
2022/12/30 06:36:19;;;;;;;0.45;0.45;;;19.60;99.90;;;;;;5879967;23;21175;-76
2022/12/30 06:38:47;;;;;;;1.58;0.30;;;19.60;99.90;;;;;;4917310;29;20612;-75
2022/12/30 06:41:14;;;;;;;4.85;0.40;;;19.60;99.90;;;;;;4917364;29;20280;-75
2022/12/30 06:43:40;;;;;;;2.90;0.35;;;19.60;99.90;;;;;;4917370;29;20208;-75
2022/12/30 06:46:07;;;;;;;0.32;0.32;;;19.60;99.90;;;;;;4917278;29;20228;-75
2022/12/30 06:48:34;;;;;;;1.00;0.30;;;19.60;99.90;;;;;;4916995;29;20572;-75
2022/12/30 06:51:01;;;;;;;1.55;0.50;;;19.60;99.90;;;;;;4940234;23;20229;-77
2022/12/30 06:53:28;;;;;;;3.50;0.30;;;19.60;99.90;;;;;;4917338;29;20209;-77
2022/12/30 06:55:57;;;;;;;3.20;0.52;;;19.60;99.90;;;;;;4917238;29;20225;-77
2022/12/30 06:58:23;;;;;;;3.55;0.50;;;19.60;99.90;;;;;;4921044;29;20221;-77
2022/12/30 07:00:50;;;;;;;2.20;0.80;;;19.50;99.90;;;;;;4920988;29;20220;-77
2022/12/30 07:03:17;;;;;;;4.45;0.50;;;19.60;99.90;;;;;;4920630;29;20684;-77
2022/12/30 07:05:43;;;;;;;5.95;0.50;;;19.60;99.90;;;;;;4920940;29;20208;-77
2022/12/30 07:08:10;;;;;;;1.63;0.32;;;19.60;99.90;;;;;;4921009;29;20212;-77
2022/12/30 07:10:37;;;;;;;3.17;0.45;;;19.60;99.90;;;;;;4920901;29;20228;-77
2022/12/30 07:13:05;;;;;;;1.88;0.40;;;19.60;99.90;;;;;;4920568;29;20572;-77
2022/12/30 07:15:32;;;;;;;1.13;0.38;;;19.60;99.90;;;;;;4920497;29;20775;-77
2022/12/30 07:17:58;;;;;;;0.40;0.30;;;19.60;99.90;;;;;;4920736;29;20209;-77
2022/12/30 07:20:25;;;;;;;1.17;0.30;;;19.60;99.90;;;;;;4920368;29;20712;-77
2022/12/30 07:22:52;;;;;;;1.35;0.43;;;19.60;99.90;;;;;;4920921;29;20208;-77
2022/12/30 07:25:18;;;;;;;2.63;0.30;;;19.60;99.90;;;;;;4920588;29;20256;-77
2022/12/30 07:27:45;;;;;;;4.25;0.30;;;19.60;99.90;;;;;;4920239;29;20684;-77
2022/12/30 07:30:14;;;;;;;1.45;0.20;;;19.60;99.90;;;;;;4920403;29;20232;-78
2022/12/30 07:32:41;;;;;;;0.20;0.20;;;19.50;99.90;;;;;;4920479;29;20209;-77
2022/12/30 07:35:08;;;;;;;0.90;0.30;;;19.60;99.90;;;;;;4920343;29;20580;-77
2022/12/30 07:37:35;;;;;;;0.20;0.20;;;19.60;99.90;;;;;;4920027;29;20216;-77
2022/12/30 07:40:02;;;;;;;1.95;0.38;;;19.60;99.90;;;;;;4920464;29;20213;-77
2022/12/30 07:42:29;;;;;;;0.43;0.38;;;19.60;99.90;;;;;;4920817;29;20208;-77
2022/12/30 07:44:55;;;;;;;0.95;0.32;;;19.60;99.90;;;;;;4920557;29;20541;-77
2022/12/30 07:47:23;;;;;;;4.05;0.30;;;19.60;99.90;;;;;;4920251;29;20217;-77
2022/12/30 07:49:50;;;;;;;1.38;0.30;;;19.50;99.90;;;;;;4920299;29;20205;-77
2022/12/30 07:52:17;;;;;;;3.42;0.40;;;19.60;99.90;;;;;;4920002;29;20240;-77
2022/12/30 07:54:43;;;;;;;1.27;0.40;;;19.60;99.90;;;;;;4920212;29;20232;-77
2022/12/30 07:57:10;;;;;;;2.92;0.40;;;19.60;99.90;;;;;;4920435;29;20205;-77
2022/12/30 07:59:37;;;;;;;6.38;0.40;;;19.60;99.90;;;;;;4920258;29;20205;-77
2022/12/30 08:02:03;;;;;;;5.30;0.52;;;19.50;99.90;;;;;;4922207;29;20221;-79
2022/12/30 08:04:31;;;;;;;3.25;0.30;;;19.50;99.90;;;;;;4928218;29;20201;-79
2022/12/30 08:06:58;;;;;;;2.38;0.40;;;19.50;99.90;;;;;;4928539;29;20209;-79
2022/12/30 08:09:25;;;;;;;4.70;0.43;;;19.50;99.90;;;;;;4928895;29;20208;-79
2022/12/30 08:11:51;;;;;;;1.23;0.30;;;19.50;99.90;;;;;;4926895;29;20229;-79
2022/12/30 08:14:18;;;;;;;2.88;0.30;;;19.50;99.90;;;;;;4929709;29;20201;-79
2022/12/30 08:16:45;;;;;;;0.40;0.38;;;19.50;99.90;;;;;;4928689;29;20568;-79
2022/12/30 08:19:12;;;;;;;0.38;0.38;;;19.60;99.90;;;;;;4926703;29;20270;-79
2022/12/30 08:21:40;;;;;;;0.90;0.47;;;19.50;99.90;;;;;;4921398;29;20228;-78
2022/12/30 08:24:07;;;;;;;3.65;0.73;;;19.50;99.90;;;;;;4924893;29;20212;-79
2022/12/30 08:26:33;;;;;;;1.55;0.47;;;19.50;99.90;;;;;;4926770;29;20212;-79
2022/12/30 08:29:00;;;;;;;2.20;0.50;;;19.80;99.90;;;;;;4934157;29;20201;-79
2022/12/30 08:31:29;;;;;;;3.58;0.70;;;19.50;99.90;;;;;;4932268;29;20236;-78
2022/12/30 08:33:56;;;;;;;0.52;0.50;;;19.50;99.90;;;;;;4933403;29;20213;-79
2022/12/30 08:36:26;;;;;;;1.70;0.47;;;19.50;99.90;;;;;;4930760;29;20257;-79
2022/12/30 08:38:56;;;;;;;10.98;0.90;;;19.50;99.90;;;;;;4934250;29;20661;-80
2022/12/30 08:41:25;;;;;;;10.73;0.73;;;19.40;99.90;;;;;;4931007;29;20236;-80
2022/12/30 08:43:54;;;;;;;5.30;0.70;;;19.50;99.90;;;;;;4925970;29;20205;-78
2022/12/30 08:46:21;;;;;;;3.78;0.68;;;19.50;99.90;;;;;;4922039;29;20660;-76
2022/12/30 08:48:48;;;;;;;5.38;0.68;;;19.50;99.90;;;;;;4924202;29;20333;-80
2022/12/30 08:51:15;;;;;;;6.72;0.80;;;19.50;99.90;;;;;;4924744;29;20243;-80
2022/12/30 08:53:43;;;;;;;2.17;0.90;;;19.60;99.90;;;;;;4925352;29;20220;-80
2022/12/30 08:56:15;;;;;;;4.68;1.02;;;19.20;99.60;;;;;;4923984;29;20224;-79
2022/12/30 08:58:43;;;;;;;0.90;0.60;;;18.90;97.50;;;;;;4923907;29;20194;-80
2022/12/30 09:01:11;;;;;;;1.13;0.57;;;19.00;96.80;;;;;;4923782;29;20229;-79
2022/12/30 09:03:39;;;;;;;8.35;0.82;;;18.70;95.90;;;;;;4924094;29;20201;-81
2022/12/30 09:06:06;;;;;;;5.68;0.50;;;18.60;96.50;;;;;;4927486;29;20212;-81
2022/12/30 09:08:33;;;;;;;5.50;0.50;;;18.80;97.50;;;;;;4925668;29;20205;-81
2022/12/30 09:11:01;;;;;;;4.32;0.73;;;18.90;97.70;;;;;;4924167;29;20228;-83
2022/12/30 09:13:30;;;;;;;9.13;0.75;;;19.00;98.00;;;;;;4924419;29;20209;-81
2022/12/30 09:15:57;;;;;;;10.48;0.70;;;19.30;98.30;;;;;;4923543;29;20233;-81
2022/12/30 09:18:24;;;;;;;7.40;0.80;;;19.50;98.60;;;;;;4924434;29;20212;-81
2022/12/30 09:20:50;;;;;;;6.43;0.52;;;19.60;98.60;;;;;;4924767;29;20232;-82
2022/12/30 09:23:20;;;;;;;2.55;0.32;;;19.80;98.40;;;;;;4924374;29;20205;-78
2022/12/30 09:25:47;;;;;;;6.65;0.47;;;20.20;98.40;;;;;;4923608;29;20568;-77
2022/12/30 09:28:14;;;;;;;7.63;0.60;;;20.00;96.80;;;;;;4923431;29;20277;-76
2022/12/30 09:30:42;;;;;;;11.98;0.90;;;20.10;96.60;;;;;;4923316;29;20221;-78
2022/12/30 09:33:09;;;;;;;15.32;0.77;;;20.10;96.50;;;;;;4922119;29;20699;-78
2022/12/30 09:35:36;;;;;;;10.90;0.93;;;20.10;96.30;;;;;;4922991;29;20228;-78
2022/12/30 09:38:03;;;;;;;2.78;0.50;;;20.20;96.00;;;;;;4922138;29;20201;-78
2022/12/30 09:40:49;;;;;;;10.23;0.80;;;20.20;95.50;;;;;;4921940;29;20225;-80
2022/12/30 09:43:22;;;;;;;5.78;0.50;;;20.20;95.10;;;;;;4921859;29;20196;-80
2022/12/30 09:46:19;;;;;;;2.28;0.40;;;20.20;95.10;;;;;;4920380;29;20189;-80
2022/12/30 09:48:53;;;;;;;7.28;0.65;;;20.20;94.40;;;;;;4922004;29;20240;-80
2022/12/30 09:51:26;;;;;;;7.13;0.90;;;20.20;94.50;;;;;;4921294;29;20233;-80
2022/12/30 09:53:56;;;;;;;1.85;0.75;;;20.10;94.20;;;;;;4921289;29;20189;-80
2022/12/30 09:56:29;;;;;;;7.00;0.60;;;20.10;94.10;;;;;;4921293;29;20213;-80
2022/12/30 09:58:58;;;;;;;2.17;0.43;;;20.00;94.00;;;;;;4919786;29;20217;-81
2022/12/30 10:01:30;;;;;;;4.57;0.45;;;20.40;94.10;;;;;;4919781;29;20228;-80
2022/12/30 10:03:59;;;;;;;1.00;0.30;;;20.00;93.90;;;;;;4919544;29;20193;-81
2022/12/30 10:06:29;;;;;;;4.10;0.95;;;20.30;94.10;;;;;;4919313;29;20204;-80
2022/12/30 10:09:15;;;;;;;6.43;0.73;;;19.80;93.80;;;;;;4922261;29;20197;-79
2022/12/30 10:11:53;;;;;;;5.07;0.70;;;19.80;93.80;;;;;;4920247;29;20232;-79
2022/12/30 10:14:30;;;;;;;5.95;0.65;;;20.00;94.10;;;;;;4921538;29;20196;-79
2022/12/30 10:17:05;;;;;;;1.00;0.50;;;19.80;94.00;;;;;;4920559;29;20224;-79
2022/12/30 10:19:43;;;;;;;6.25;0.50;;;19.80;93.90;;;;;;4920184;29;20240;-78
2022/12/30 10:22:17;;;;;;;3.67;0.45;;;19.60;94.00;;;;;;4919859;29;20631;-79
2022/12/30 10:24:56;;;;;;;2.55;0.40;;;19.70;94.10;;;;;;4919989;29;20188;-78
2022/12/30 10:27:29;;;;;;;1.63;0.45;;;19.70;94.20;;;;;;4920626;29;20185;-79
2022/12/30 10:29:56;;;;;;;2.35;0.45;;;19.70;94.30;;;;;;4920358;29;20208;-79
2022/12/30 10:32:28;;;;;;;2.10;0.32;;;19.80;94.30;;;;;;4918150;29;20561;-79
2022/12/30 10:35:01;;;;;;;3.80;0.63;;;19.60;94.50;;;;;;4918935;29;20193;-79
2022/12/30 10:37:32;;;;;;;2.97;0.40;;;19.60;94.60;;;;;;4919934;29;20188;-78
2022/12/30 10:40:00;;;;;;;1.25;0.40;;;19.60;94.70;;;;;;4918535;29;20189;-77
2022/12/30 10:42:48;;;;;;;1.35;0.52;;;19.60;94.80;;;;;;4919354;29;20205;-75
2022/12/30 10:45:35;;;;;;;0.20;0.20;;;19.70;94.90;;;;;;4920654;29;20189;-77
2022/12/30 10:48:17;;;;;;;0.50;0.50;;;19.50;94.90;;;;;;4918995;29;20196;-76
2022/12/30 10:50:47;;;;;;;0.70;0.47;;;19.50;95.10;;;;;;4919098;29;20233;-76
2022/12/30 10:53:18;;;;;;;1.15;0.40;;;19.40;95.10;;;;;;4917939;29;20668;-76
2022/12/30 10:55:49;;;;;;;1.85;0.32;;;19.60;95.10;;;;;;4919314;29;20223;-76
2022/12/30 10:58:24;;;;;;;1.13;0.25;;;19.60;95.00;;;;;;4918345;29;20189;-76
2022/12/30 11:00:51;;;;;;;0.75;0.60;;;19.60;95.00;;;;;;4918269;29;20235;-76
2022/12/30 11:03:31;;;;;;;0.52;0.30;;;19.60;95.20;;;;;;4918690;29;20205;-76
2022/12/30 11:06:14;;;;;;;0.65;0.30;;;19.70;94.90;;;;;;4920895;29;20271;-79
2022/12/30 11:08:41;;;;;;;1.27;0.40;;;19.60;94.90;;;;;;4920672;29;20209;-79
2022/12/30 11:11:09;;;;;;;1.23;0.30;;;19.70;94.90;;;;;;4919991;29;20221;-79
2022/12/30 11:16:25;;;;;;;0.57;0.35;;;19.70;94.70;;;;;;4922478;29;20211;-77
2022/12/30 11:18:55;;;;;;;3.67;0.40;;;19.80;94.80;;;;;;4920468;29;20625;-78
2022/12/30 11:21:26;;;;;;;0.30;0.30;;;19.70;94.80;;;;;;4920187;29;20574;-78
2022/12/30 11:23:55;;;;;;;0.32;0.30;;;19.70;95.10;;;;;;4918973;29;20703;-79
2022/12/30 11:26:24;;;;;;;1.20;0.45;;;19.80;94.90;;;;;;4919672;29;20228;-78
2022/12/30 11:28:54;;;;;;;0.30;0.20;;;19.90;95.00;;;;;;4919821;29;20208;-79
2022/12/30 11:31:21;;;;;;;0.40;0.40;;;19.70;95.20;;;;;;4919569;29;20228;-78
2022/12/30 11:33:50;;;;;;;2.08;0.50;;;19.70;95.20;;;;;;4918640;29;20704;-76
2022/12/30 11:36:33;;;;;;;2.55;0.40;;;19.70;95.50;;;;;;4917320;29;20688;-78
2022/12/30 11:39:11;;;;;;;0.20;0.20;;;19.60;95.90;;;;;;4918105;29;20613;-78
2022/12/30 11:41:48;;;;;;;2.90;0.60;;;19.60;95.60;;;;;;4917897;29;20231;-78
2022/12/30 11:44:19;;;;;;;1.60;0.45;;;20.50;95.80;;;;;;4925229;29;20181;-76
2022/12/30 11:46:49;;;;;;;1.67;0.40;;;19.60;95.30;;;;;;4922624;29;20190;-78
2022/12/30 11:49:26;;;;;;;0.40;0.40;;;19.50;95.40;;;;;;4922316;29;20296;-76
2022/12/30 11:51:57;;;;;;;1.55;0.50;;;19.50;94.20;;;;;;4920169;29;20743;-77
2022/12/30 11:54:26;;;;;;;1.98;0.65;;;19.20;90.00;;;;;;4921086;29;20201;-78
2022/12/30 11:56:55;;;;;;;0.52;0.52;;;18.90;84.10;;;;;;4920299;29;20232;-78
2022/12/30 11:59:26;;;;;;;0.43;0.43;;;18.60;80.70;;;;;;4919828;29;20587;-77
2022/12/30 12:01:56;;;;;;;1.02;0.60;;;18.40;77.90;;;;;;4920224;29;20233;-77
2022/12/30 12:04:37;;;;;;;0.40;0.40;;;18.10;76.40;;;;;;4920732;29;20200;-77
2022/12/30 12:07:19;;;;;;;18.65;4.15;;;18.00;74.00;;;;;;4920285;29;20597;-77
2022/12/30 12:09:51;;;;;;;8.13;2.20;;;18.00;76.10;;;;;;4920268;29;20193;-77
2022/12/30 12:12:21;;;;;;;11.80;2.85;;;18.20;79.20;;;;;;4920344;29;20732;-77
2022/12/30 12:15:02;;;;;;;10.45;2.70;;;18.70;80.60;;;;;;4920309;29;20216;-77
2022/12/30 12:17:41;;;;;;;14.65;2.95;;;19.00;81.50;;;;;;4921022;29;20220;-78
2022/12/30 12:20:18;;;;;;;14.82;3.08;;;19.40;82.10;;;;;;4919817;29;20223;-77
2022/12/30 12:22:58;;;;;;;10.75;2.83;;;19.70;82.20;;;;;;4919925;29;20225;-77
2022/12/30 12:25:31;;;;;;;19.25;3.25;;;19.90;81.50;;;;;;4921037;29;20193;-77
2022/12/30 12:27:57;;;;;;;13.15;3.90;;;20.10;80.20;;;;;;4921943;29;20196;-79
2022/12/30 12:30:24;;;;;;;15.45;3.72;;;20.40;80.20;;;;;;4920912;29;20233;-78
2022/12/30 12:33:17;;;;;;;25.33;4.53;;;20.50;80.40;;;;;;4920650;29;20208;-79
2022/12/30 12:35:49;;;;;;;18.45;3.70;;;20.80;80.40;;;;;;4920051;29;20216;-76
2022/12/30 12:38:41;;;;;;;16.33;3.83;;;20.90;80.50;;;;;;4920608;29;20199;-79
2022/12/30 12:41:23;;;;;;;20.70;3.58;;;21.10;80.70;;;;;;4921999;29;20224;-79
2022/12/30 12:44:04;;;;;;;23.60;3.85;;;21.10;80.70;;;;;;4923212;29;20212;-79
2022/12/30 12:46:48;;;;;;;13.57;3.90;;;21.10;80.70;;;;;;4921615;29;20664;-79
2022/12/30 12:49:38;;;;;;;7.85;2.97;;;20.60;89.20;;;;;;4921771;29;20197;-79
2022/12/30 12:52:19;;;;;;;11.90;3.42;;;21.10;80.10;;;;;;4921434;29;20232;-79
2022/12/30 12:55:11;;;;;;;13.13;3.63;;;21.10;79.60;;;;;;4920156;29;20189;-79
2022/12/30 12:57:42;;;;;;;12.65;3.17;;;21.20;77.90;;;;;;4913166;29;20261;-79
2022/12/30 13:00:12;;;;;;;21.67;3.42;;;21.30;78.50;;;;;;4919936;29;20197;-79
2022/12/30 13:03:15;;;;;;;16.83;3.05;;;21.30;79.10;;;;;;4919673;29;20638;-79
2022/12/30 13:05:50;;;;;;;9.63;3.10;;;21.30;78.70;;;;;;4920528;29;20211;-79
2022/12/30 13:08:32;;;;;;;14.02;3.70;;;21.40;79.70;;;;;;4920086;29;20207;-80
2022/12/30 13:11:07;;;;;;;15.27;2.88;;;21.40;79.90;;;;;;4921116;29;20225;-79
2022/12/30 13:13:39;;;;;;;13.88;3.28;;;21.40;80.00;;;;;;4920027;29;20192;-78
2022/12/30 13:16:08;;;;;;;11.43;3.13;;;21.50;80.40;;;;;;4920663;29;20209;-79
2022/12/30 13:18:39;;;;;;;11.68;2.90;;;21.50;80.70;;;;;;4920179;29;20240;-79
2022/12/30 13:21:09;;;;;;;8.23;2.65;;;21.50;81.10;;;;;;4921114;29;20228;-79
2022/12/30 13:23:42;;;;;;;6.60;2.60;;;21.50;81.20;;;;;;4921534;29;20208;-79
2022/12/30 13:26:10;;;;;;;10.50;3.20;;;21.50;81.20;;;;;;4921504;29;20189;-79
2022/12/30 13:28:38;;;;;;;9.95;2.97;;;21.50;81.70;;;;;;4920774;29;20205;-78
2022/12/30 13:31:21;;;;;;;12.68;3.00;;;21.60;82.10;;;;;;4920704;29;20228;-79
2022/12/30 13:33:59;;;;;;;9.48;2.35;;;21.50;82.60;;;;;;4943914;23;20193;-78
2022/12/30 13:36:34;;;;;;;13.32;3.05;;;21.60;83.20;;;;;;4899909;29;20692;-77
2022/12/30 13:39:12;;;;;;;8.35;3.20;;;21.70;83.90;;;;;;4900355;29;20190;-77
2022/12/30 13:42:07;;;;;;;14.00;3.22;;;21.60;84.80;;;;;;4899968;29;20671;-78
2022/12/30 13:44:37;;;;;;;20.23;3.20;;;21.60;85.20;;;;;;4901294;29;20233;-79
2022/12/30 13:47:06;;;;;;;18.00;3.30;;;21.60;86.60;;;;;;4901439;29;20206;-78
2022/12/30 13:49:35;;;;;;;17.80;2.60;;;21.60;90.30;;;;;;4901688;29;20202;-75
2022/12/30 13:52:04;;;;;;;11.05;3.10;;;21.80;83.00;;;;;;4899849;29;20717;-77
2022/12/30 13:54:33;;;;;;;17.45;3.35;;;21.50;82.30;;;;;;4901224;29;20228;-77
2022/12/30 13:57:02;;;;;;;10.15;2.78;;;21.50;82.60;;;;;;4900977;29;20221;-77
2022/12/30 13:59:32;;;;;;;10.82;2.67;;;21.60;83.00;;;;;;4900271;29;20212;-77
2022/12/30 14:02:42;;;;;;;14.27;2.63;;;21.50;83.20;;;;;;4901230;29;20197;-77
2022/12/30 14:05:44;;;;;;;17.38;2.63;;;21.40;82.80;;;;;;4887671;29;20226;-79
2022/12/30 14:08:41;;;;;;;13.95;2.03;;;21.30;83.80;;;;;;4900871;29;20204;-78
2022/12/30 14:11:13;;;;;;;11.70;2.30;;;21.20;82.80;;;;;;4902284;29;20205;-78
2022/12/30 14:13:42;;;;;;;6.22;2.28;;;21.20;82.30;;;;;;4900818;29;20657;-79
2022/12/30 14:16:42;;;;;;;12.85;2.40;;;21.10;82.30;;;;;;4901158;29;20209;-79
2022/12/30 14:19:13;;;;;;;15.43;2.10;;;20.90;81.90;;;;;;4901709;29;20190;-77
2022/12/30 14:21:48;;;;;;;7.95;2.08;;;20.80;82.70;;;;;;4900123;29;20189;-76
2022/12/30 14:24:46;;;;;;;9.65;2.10;;;20.80;83.00;;;;;;4899927;29;20261;-78
2022/12/30 14:27:45;;;;;;;10.82;3.38;;;20.80;82.40;;;;;;4899670;29;20225;-75
2022/12/30 14:30:38;;;;;;;23.77;3.58;;;20.80;84.00;;;;;;4842779;29;20188;-76
2022/12/30 14:33:16;;;;;;;10.95;3.00;;;20.90;82.60;;;;;;4890485;29;20673;-77
2022/12/30 14:35:50;;;;;;;15.27;3.00;;;21.10;82.70;;;;;;4899371;29;20237;-78
2022/12/30 14:38:29;;;;;;;36.08;3.67;;;20.80;82.40;;;;;;4899852;29;20251;-78
2022/12/30 14:41:00;;;;;;;16.75;3.08;;;20.70;82.20;;;;;;4899303;29;20208;-77
2022/12/30 14:43:29;;;;;;;13.52;3.92;;;20.70;82.00;;;;;;4900091;29;20196;-77
2022/12/30 14:46:34;;;;;;;14.05;2.30;;;20.60;81.90;;;;;;4899004;29;20585;-77
2022/12/30 14:49:03;;;;;;;16.58;2.67;;;20.60;81.30;;;;;;4899670;29;20235;-76
2022/12/30 14:51:31;;;;;;;11.32;2.47;;;20.50;81.90;;;;;;4899601;29;20210;-78
2022/12/30 14:53:59;;;;;;;17.35;2.92;;;20.50;81.90;;;;;;4898933;29;20213;-77
2022/12/30 14:56:26;;;;;;;14.32;3.13;;;20.50;81.70;;;;;;4898302;29;20232;-77
2022/12/30 14:58:55;;;;;;;13.77;2.53;;;20.50;81.80;;;;;;4899172;29;20205;-78
2022/12/30 15:01:23;;;;;;;10.93;2.22;;;20.40;81.60;;;;;;4899793;29;20212;-77
2022/12/30 15:04:11;;;;;;;7.93;2.30;;;20.40;81.60;;;;;;4899098;29;20205;-78
2022/12/30 15:06:41;;;;;;;8.60;2.10;;;20.40;80.80;;;;;;4898997;29;20201;-78
2022/12/30 15:09:09;;;;;;;10.80;2.42;;;20.30;81.70;;;;;;4899087;29;20237;-78
2022/12/30 15:11:37;;;;;;;8.07;2.05;;;20.30;81.80;;;;;;4898871;29;20217;-78
2022/12/30 15:14:13;;;;;;;7.78;2.05;;;20.30;81.80;;;;;;4899808;29;20284;-79
2022/12/30 15:16:39;;;;;;;7.63;1.83;;;20.20;81.80;;;;;;4898937;29;20216;-79
2022/12/30 15:19:22;;;;;;;11.82;2.00;;;20.20;82.10;;;;;;4901909;29;20201;-77
2022/12/30 15:21:49;;;;;;;10.45;1.73;;;20.40;81.90;;;;;;4902023;29;20185;-78
2022/12/30 15:24:18;;;;;;;13.57;2.30;;;20.20;82.10;;;;;;4901909;29;20233;-78
2022/12/30 15:26:51;;;;;;;8.32;2.05;;;20.20;82.00;;;;;;4902140;29;20204;-78
2022/12/30 15:29:24;;;;;;;7.32;1.80;;;20.10;82.00;;;;;;4901872;29;20208;-78
2022/12/30 15:31:53;;;;;;;8.73;1.50;;;20.10;82.00;;;;;;4901643;29;20193;-77
2022/12/30 15:34:21;;;;;;;12.63;1.83;;;20.10;82.20;;;;;;4901176;29;20739;-77
2022/12/30 15:36:49;;;;;;;2.78;1.50;;;20.10;82.30;;;;;;4901501;29;20232;-77
2022/12/30 15:39:19;;;;;;;8.30;1.73;;;20.10;82.40;;;;;;4901540;29;20213;-78
2022/12/30 15:41:47;;;;;;;9.80;1.52;;;20.00;82.60;;;;;;4901464;29;20209;-75
2022/12/30 15:44:18;;;;;;;13.40;1.60;;;20.40;83.60;;;;;;4901078;29;20626;-78
2022/12/30 15:46:54;;;;;;;5.75;1.27;;;20.00;80.00;;;;;;4901393;29;20189;-78
2022/12/30 15:49:23;;;;;;;7.85;1.35;;;19.90;79.50;;;;;;4901386;29;20224;-78
2022/12/30 15:51:53;;;;;;;4.38;1.40;;;20.00;79.50;;;;;;4901285;29;20201;-79
2022/12/30 15:54:24;;;;;;;6.07;1.45;;;20.00;79.60;;;;;;4901217;29;20229;-78
2022/12/30 15:56:52;;;;;;;4.68;1.13;;;20.00;79.50;;;;;;4901169;29;20213;-78
2022/12/30 15:59:25;;;;;;;5.97;1.40;;;19.90;79.40;;;;;;4900989;29;20205;-76
2022/12/30 16:01:54;;;;;;;2.30;1.08;;;20.10;79.60;;;;;;4902064;29;20193;-77
2022/12/30 16:04:24;;;;;;;4.85;1.50;;;20.00;79.50;;;;;;4900708;29;20657;-77
2022/12/30 16:06:52;;;;;;;1.70;0.98;;;19.90;79.40;;;;;;4900995;29;20186;-74
2022/12/30 16:09:44;;;;;;;9.60;1.67;;;19.90;79.40;;;;;;4900884;29;20210;-76
2022/12/30 16:12:24;;;;;;;3.78;1.00;;;20.00;79.50;;;;;;4886576;29;20253;-76
2022/12/30 16:14:57;;;;;;;2.30;1.20;;;19.90;79.60;;;;;;4900773;29;20226;-77
2022/12/30 16:17:27;;;;;;;3.08;1.27;;;19.90;79.40;;;;;;4900601;29;20724;-77
2022/12/30 16:19:54;;;;;;;5.18;1.23;;;19.90;79.50;;;;;;4902689;29;20205;-77
2022/12/30 16:22:24;;;;;;;8.18;1.50;;;19.90;79.60;;;;;;4904437;29;20205;-80
2022/12/30 16:24:56;;;;;;;9.18;1.08;;;19.80;79.40;;;;;;4904829;29;20229;-79
2022/12/30 16:27:24;;;;;;;1.10;1.00;;;20.00;79.50;;;;;;4904867;29;20269;-78
2022/12/30 16:29:51;;;;;;;5.53;1.10;;;20.10;79.70;;;;;;4901395;29;20206;-78
2022/12/30 16:32:22;;;;;;;10.43;0.85;;;19.90;79.60;;;;;;4901150;29;20257;-77
2022/12/30 16:34:50;;;;;;;3.65;1.60;;;19.90;79.50;;;;;;4900144;29;20736;-76
2022/12/30 16:37:24;;;;;;;10.13;4.65;;;19.90;79.50;;;;;;4900140;29;20593;-76
2022/12/30 16:39:51;;;;;;;20.65;6.15;;;19.90;80.90;;;;;;4902521;29;20201;-76
2022/12/30 16:42:18;;;;;;;19.52;5.93;;;20.00;82.00;;;;;;4901216;29;20202;-77
2022/12/30 16:44:45;;;;;;;20.75;9.25;;;20.10;83.50;;;;;;4900230;29;20236;-77
2022/12/30 16:47:12;;;;;;;16.80;8.18;;;20.20;84.40;;;;;;4899940;29;20704;-77
2022/12/30 16:49:38;;;;;;;17.25;8.25;;;20.20;84.90;;;;;;4900762;29;20201;-77
2022/12/30 16:52:12;;;;;;;11.98;7.15;;;20.30;85.60;;;;;;4899835;29;20670;-77
2022/12/30 16:54:40;;;;;;;15.95;8.07;;;20.30;86.00;;;;;;4900123;29;20229;-77